createdAt,value
2018-02-25T00:00:13.108Z,4.70
2018-02-25T00:01:13.090Z,4.40
2018-02-25T00:02:13.081Z,4.90
2018-02-25T00:03:13.061Z,3.40
2018-02-25T00:04:13.020Z,4.50
2018-02-25T00:05:12.999Z,4.50
2018-02-25T00:06:12.980Z,6.10
2018-02-25T00:07:12.954Z,3.60
2018-02-25T00:08:12.949Z,4.80
2018-02-25T00:09:12.948Z,4.00
2018-02-25T00:10:12.887Z,4.20
2018-02-25T00:11:12.869Z,4.60
2018-02-25T00:12:12.849Z,5.00
2018-02-25T00:13:12.851Z,5.30
2018-02-25T00:14:12.819Z,4.20
2018-02-25T00:15:12.787Z,4.50
2018-02-25T00:16:12.756Z,3.90
2018-02-25T00:17:12.739Z,5.50
2018-02-25T00:18:12.727Z,4.10
2018-02-25T00:19:12.713Z,5.90
2018-02-25T00:20:12.691Z,3.80
2018-02-25T00:21:12.651Z,4.40
2018-02-25T00:22:12.634Z,4.70
2018-02-25T00:23:12.605Z,4.10
2018-02-25T00:24:12.602Z,4.10
2018-02-25T00:25:12.586Z,4.00
2018-02-25T00:26:12.542Z,6.30
2018-02-25T00:27:12.528Z,4.10
2018-02-25T00:28:12.500Z,4.00
2018-02-25T00:29:12.480Z,4.00
2018-02-25T00:30:12.458Z,4.00
2018-02-25T00:31:12.449Z,3.80
2018-02-25T00:32:12.459Z,4.10
2018-02-25T00:33:12.390Z,3.50
2018-02-25T00:34:12.374Z,3.90
2018-02-25T00:35:12.348Z,3.80
2018-02-25T00:36:12.850Z,4.40
2018-02-25T00:37:12.306Z,4.10
2018-02-25T00:38:12.279Z,5.20
2018-02-25T00:39:12.256Z,5.20
2018-02-25T00:40:12.243Z,3.70
2018-02-25T00:41:12.210Z,3.70
2018-02-25T00:42:12.211Z,4.40
2018-02-25T00:43:12.186Z,4.40
2018-02-25T00:44:12.147Z,4.20
2018-02-25T00:45:12.130Z,4.50
2018-02-25T00:46:12.105Z,4.70
2018-02-25T00:47:12.147Z,4.00
2018-02-25T00:48:12.064Z,4.70
2018-02-25T00:49:12.045Z,4.40
2018-02-25T00:50:12.022Z,3.90
2018-02-25T00:51:11.997Z,4.20
2018-02-25T00:52:11.998Z,3.70
2018-02-25T00:53:11.973Z,3.50
2018-02-25T00:54:11.936Z,3.50
2018-02-25T00:55:11.909Z,4.10
2018-02-25T00:56:11.906Z,4.10
2018-02-25T00:57:11.870Z,5.00
2018-02-25T00:58:11.859Z,4.60
2018-02-25T00:59:11.824Z,4.90
2018-02-25T01:00:11.805Z,4.60
2018-02-25T01:01:11.782Z,5.50
2018-02-25T01:02:11.772Z,4.40
2018-02-25T01:03:11.747Z,4.40
2018-02-25T01:04:11.716Z,5.10
2018-02-25T01:05:11.693Z,3.60
2018-02-25T01:06:11.670Z,4.20
2018-02-25T01:07:11.663Z,4.80
2018-02-25T01:08:11.657Z,3.50
2018-02-25T01:09:11.598Z,4.30
2018-02-25T01:10:11.598Z,4.00
2018-02-25T01:11:11.558Z,5.30
2018-02-25T01:12:11.544Z,3.80
2018-02-25T01:13:11.515Z,4.70
2018-02-25T01:14:11.532Z,3.90
2018-02-25T01:15:11.483Z,5.60
2018-02-25T01:16:11.452Z,3.80
2018-02-25T01:17:11.435Z,5.90
2018-02-25T01:18:11.414Z,4.10
2018-02-25T01:19:11.403Z,4.40
2018-02-25T01:20:11.363Z,5.30
2018-02-25T01:21:11.350Z,4.00
2018-02-25T01:22:11.315Z,5.20
2018-02-25T01:23:11.821Z,4.40
2018-02-25T01:24:11.293Z,3.80
2018-02-25T01:25:11.261Z,4.80
2018-02-25T01:26:11.230Z,5.00
2018-02-25T01:27:11.210Z,4.20
2018-02-25T01:28:11.183Z,4.00
2018-02-25T01:29:11.164Z,4.20
2018-02-25T01:30:11.160Z,4.40
2018-02-25T01:31:11.118Z,4.30
2018-02-25T01:32:11.110Z,4.20
2018-02-25T01:33:11.076Z,3.80
2018-02-25T01:34:11.067Z,4.80
2018-02-25T01:35:11.049Z,4.90
2018-02-25T01:36:11.012Z,4.20
2018-02-25T01:37:10.987Z,4.10
2018-02-25T01:38:10.980Z,4.20
2018-02-25T01:39:10.943Z,4.10
2018-02-25T01:40:10.920Z,4.50
2018-02-25T01:41:10.898Z,4.70
2018-02-25T01:42:10.914Z,4.40
2018-02-25T01:43:10.853Z,4.70
2018-02-25T01:44:11.388Z,4.60
2018-02-25T01:45:10.813Z,5.00
2018-02-25T01:46:10.797Z,4.70
2018-02-25T01:47:10.767Z,4.30
2018-02-25T01:48:10.761Z,4.30
2018-02-25T01:49:10.716Z,6.10
2018-02-25T01:50:10.704Z,5.20
2018-02-25T01:51:10.675Z,4.00
2018-02-25T01:52:10.657Z,5.00
2018-02-25T01:53:10.636Z,5.80
2018-02-25T01:54:11.357Z,4.90
2018-02-25T01:55:10.590Z,5.30
2018-02-25T01:56:10.569Z,6.00
2018-02-25T01:57:10.566Z,5.20
2018-02-25T01:58:10.526Z,4.10
2018-02-25T01:59:10.501Z,5.00
2018-02-25T02:00:10.481Z,6.30
2018-02-25T02:01:10.476Z,5.00
2018-02-25T02:02:10.437Z,4.60
2018-02-25T02:03:10.411Z,4.40
2018-02-25T02:04:10.389Z,4.60
2018-02-25T02:05:10.374Z,4.40
2018-02-25T02:06:10.363Z,4.60
2018-02-25T02:07:10.349Z,4.90
2018-02-25T02:08:10.320Z,4.20
2018-02-25T02:09:10.283Z,4.50
2018-02-25T02:10:10.262Z,5.30
2018-02-25T02:11:10.233Z,4.80
2018-02-25T02:12:10.214Z,5.60
2018-02-25T02:13:10.192Z,4.80
2018-02-25T02:14:10.188Z,4.50
2018-02-25T02:15:10.158Z,4.80
2018-02-25T02:16:10.127Z,4.60
2018-02-25T02:17:10.102Z,5.50
2018-02-25T02:18:10.078Z,4.70
2018-02-25T02:19:10.057Z,4.90
2018-02-25T02:20:10.055Z,5.60
2018-02-25T02:21:10.015Z,4.70
2018-02-25T02:22:09.994Z,5.40
2018-02-25T02:23:09.966Z,4.40
2018-02-25T02:24:09.948Z,4.20
2018-02-25T02:25:10.821Z,4.70
2018-02-25T02:26:09.903Z,4.00
2018-02-25T02:27:09.886Z,4.10
2018-02-25T02:28:09.863Z,5.80
2018-02-25T02:29:09.838Z,4.10
2018-02-25T02:30:09.833Z,3.80
2018-02-25T02:31:09.794Z,4.70
2018-02-25T02:32:09.781Z,4.20
2018-02-25T02:33:09.755Z,4.40
2018-02-25T02:34:09.730Z,5.70
2018-02-25T02:35:09.697Z,4.20
2018-02-25T02:36:09.690Z,4.30
2018-02-25T02:37:09.657Z,4.20
2018-02-25T02:38:09.636Z,5.00
2018-02-25T02:39:09.607Z,5.90
2018-02-25T02:40:09.606Z,4.30
2018-02-25T02:41:09.599Z,4.40
2018-02-25T02:42:09.552Z,8.10
2018-02-25T02:43:09.524Z,18.80
2018-02-25T02:44:09.502Z,17.60
2018-02-25T02:45:09.480Z,18.40
2018-02-25T02:46:09.470Z,11.20
2018-02-25T02:47:09.444Z,9.70
2018-02-25T02:48:09.419Z,7.60
2018-02-25T02:49:09.388Z,6.70
2018-02-25T02:50:09.368Z,5.10
2018-02-25T02:51:09.349Z,5.40
2018-02-25T02:52:09.339Z,5.30
2018-02-25T02:53:09.302Z,5.70
2018-02-25T02:54:09.279Z,4.20
2018-02-25T02:55:09.265Z,5.10
2018-02-25T02:56:09.238Z,5.20
2018-02-25T02:57:09.228Z,5.40
2018-02-25T02:58:09.203Z,6.10
2018-02-25T02:59:09.172Z,4.80
2018-02-25T03:00:09.145Z,5.40
2018-02-25T03:01:09.122Z,4.90
2018-02-25T03:02:09.115Z,4.30
2018-02-25T03:03:09.072Z,5.00
2018-02-25T03:04:09.053Z,4.80
2018-02-25T03:05:09.039Z,4.70
2018-02-25T03:06:09.012Z,4.70
2018-02-25T03:07:09.006Z,5.20
2018-02-25T03:08:08.981Z,5.00
2018-02-25T03:09:08.944Z,4.90
2018-02-25T03:10:08.924Z,4.70
2018-02-25T03:11:08.907Z,4.50
2018-02-25T03:12:08.877Z,5.20
2018-02-25T03:13:08.849Z,6.30
2018-02-25T03:14:08.848Z,5.80
2018-02-25T03:15:08.809Z,5.80
2018-02-25T03:16:08.803Z,5.10
2018-02-25T03:17:08.769Z,5.50
2018-02-25T03:18:08.743Z,7.30
2018-02-25T03:19:08.764Z,5.50
2018-02-25T03:20:08.713Z,5.30
2018-02-25T03:21:08.672Z,5.50
2018-02-25T03:22:08.650Z,4.80
2018-02-25T03:23:08.627Z,6.20
2018-02-25T03:24:08.629Z,5.20
2018-02-25T03:25:08.600Z,5.20
2018-02-25T03:26:08.563Z,4.80
2018-02-25T03:27:08.541Z,6.90
2018-02-25T03:28:08.522Z,4.70
2018-02-25T03:29:08.489Z,5.30
2018-02-25T03:30:08.492Z,5.40
2018-02-25T03:31:08.480Z,5.50
2018-02-25T03:32:08.427Z,5.90
2018-02-25T03:33:08.410Z,5.40
2018-02-25T03:34:08.379Z,6.40
2018-02-25T03:35:08.353Z,5.50
2018-02-25T03:36:08.352Z,5.80
2018-02-25T03:37:08.848Z,6.60
2018-02-25T03:38:08.292Z,5.80
2018-02-25T03:39:08.270Z,5.50
2018-02-25T03:40:08.245Z,5.00
2018-02-25T03:41:08.241Z,6.00
2018-02-25T03:42:08.203Z,6.10
2018-02-25T03:43:08.179Z,5.20
2018-02-25T03:44:08.157Z,4.90
2018-02-25T03:45:08.138Z,5.70
2018-02-25T03:46:08.111Z,5.30
2018-02-25T03:47:08.107Z,5.40
2018-02-25T03:48:08.068Z,5.40
2018-02-25T03:49:08.038Z,4.90
2018-02-25T03:50:08.020Z,5.10
2018-02-25T03:51:07.998Z,5.80
2018-02-25T03:52:07.970Z,6.50
2018-02-25T03:53:07.970Z,6.20
2018-02-25T03:54:07.951Z,5.70
2018-02-25T03:55:07.906Z,5.40
2018-02-25T03:56:07.880Z,6.10
2018-02-25T03:57:07.916Z,6.10
2018-02-25T03:58:07.838Z,5.10
2018-02-25T03:59:07.811Z,6.00
2018-02-25T04:00:07.795Z,5.50
2018-02-25T04:01:07.790Z,5.90
2018-02-25T04:02:07.752Z,5.90
2018-02-25T04:03:07.730Z,5.70
2018-02-25T04:04:07.702Z,5.20
2018-02-25T04:05:07.736Z,6.10
2018-02-25T04:06:07.662Z,5.90
2018-02-25T04:07:07.648Z,5.90
2018-02-25T04:08:07.625Z,6.30
2018-02-25T04:09:07.589Z,6.10
2018-02-25T04:10:07.564Z,5.50
2018-02-25T04:11:07.541Z,5.90
2018-02-25T04:12:07.520Z,5.60
2018-02-25T04:13:07.499Z,6.30
2018-02-25T04:14:07.493Z,6.70
2018-02-25T04:15:07.466Z,6.50
2018-02-25T04:16:07.432Z,7.10
2018-02-25T04:17:07.407Z,6.20
2018-02-25T04:18:07.386Z,5.90
2018-02-25T04:19:07.366Z,6.30
2018-02-25T04:20:07.354Z,7.10
2018-02-25T04:21:07.318Z,6.40
2018-02-25T04:22:07.306Z,5.80
2018-02-25T04:23:07.268Z,6.60
2018-02-25T04:24:07.249Z,5.50
2018-02-25T04:25:08.821Z,5.20
2018-02-25T04:26:07.204Z,7.00
2018-02-25T04:27:07.184Z,6.00
2018-02-25T04:28:07.172Z,5.60
2018-02-25T04:29:07.139Z,6.40
2018-02-25T04:30:07.110Z,5.70
2018-02-25T04:31:07.107Z,6.60
2018-02-25T04:32:07.076Z,6.00
2018-02-25T04:33:07.070Z,5.30
2018-02-25T04:34:07.024Z,6.00
2018-02-25T04:35:06.994Z,6.20
2018-02-25T04:36:06.976Z,8.00
2018-02-25T04:37:06.951Z,7.30
2018-02-25T04:38:06.946Z,5.40
2018-02-25T04:39:06.934Z,6.60
2018-02-25T04:40:06.890Z,5.80
2018-02-25T04:41:06.864Z,5.80
2018-02-25T04:42:06.853Z,6.50
2018-02-25T04:43:06.830Z,7.20
2018-02-25T04:44:06.809Z,6.90
2018-02-25T04:45:06.769Z,7.40
2018-02-25T04:46:06.750Z,6.40
2018-02-25T04:47:06.732Z,7.00
2018-02-25T04:48:06.697Z,6.90
2018-02-25T04:49:06.694Z,5.80
2018-02-25T04:50:06.665Z,7.40
2018-02-25T04:51:06.634Z,7.50
2018-02-25T04:52:07.354Z,7.10
2018-02-25T04:53:06.589Z,7.10
2018-02-25T04:54:06.583Z,6.20
2018-02-25T04:55:06.541Z,7.60
2018-02-25T04:56:06.522Z,6.80
2018-02-25T04:57:06.526Z,5.90
2018-02-25T04:58:06.468Z,7.10
2018-02-25T04:59:06.478Z,7.10
2018-02-25T05:00:06.430Z,6.80
2018-02-25T05:01:06.463Z,6.10
2018-02-25T05:02:06.383Z,5.80
2018-02-25T05:03:06.376Z,7.50
2018-02-25T05:04:06.341Z,6.20
2018-02-25T05:05:06.318Z,6.20
2018-02-25T05:06:06.289Z,6.40
2018-02-25T05:07:06.276Z,5.80
2018-02-25T05:08:06.264Z,6.40
2018-02-25T05:09:06.230Z,7.10
2018-02-25T05:10:06.200Z,6.40
2018-02-25T05:11:06.181Z,6.90
2018-02-25T05:12:06.156Z,6.00
2018-02-25T05:13:06.134Z,5.90
2018-02-25T05:14:06.121Z,7.00
2018-02-25T05:15:06.085Z,5.90
2018-02-25T05:16:06.063Z,7.30
2018-02-25T05:17:06.041Z,8.00
2018-02-25T05:18:06.019Z,7.00
2018-02-25T05:19:06.008Z,6.70
2018-02-25T05:20:05.993Z,7.30
2018-02-25T05:21:05.950Z,7.50
2018-02-25T05:22:05.922Z,7.80
2018-02-25T05:23:05.900Z,6.60
2018-02-25T05:24:05.875Z,6.50
2018-02-25T05:25:05.857Z,7.40
2018-02-25T05:26:05.846Z,6.90
2018-02-25T05:27:05.813Z,7.70
2018-02-25T05:28:05.794Z,6.80
2018-02-25T05:29:05.764Z,6.10
2018-02-25T05:30:05.761Z,6.60
2018-02-25T05:31:05.716Z,7.10
2018-02-25T05:32:05.694Z,7.30
2018-02-25T05:33:05.671Z,8.00
2018-02-25T05:34:05.650Z,7.80
2018-02-25T05:35:05.623Z,8.30
2018-02-25T05:36:05.618Z,9.60
2018-02-25T05:37:05.578Z,7.50
2018-02-25T05:38:05.555Z,7.60
2018-02-25T05:39:26.546Z,6.30
2018-02-25T05:40:05.511Z,7.30
2018-02-25T05:41:05.504Z,6.50
2018-02-25T05:42:05.460Z,8.20
2018-02-25T05:43:05.438Z,7.60
2018-02-25T05:44:05.420Z,7.90
2018-02-25T05:45:05.407Z,7.20
2018-02-25T05:46:05.377Z,7.20
2018-02-25T05:47:05.348Z,7.10
2018-02-25T05:48:05.327Z,7.60
2018-02-25T05:49:05.302Z,6.70
2018-02-25T05:50:05.289Z,6.60
2018-02-25T05:51:05.273Z,7.30
2018-02-25T05:52:05.234Z,6.70
2018-02-25T05:53:05.209Z,7.40
2018-02-25T05:54:05.185Z,7.50
2018-02-25T05:55:05.159Z,8.50
2018-02-25T05:56:05.136Z,7.10
2018-02-25T05:57:05.134Z,6.10
2018-02-25T05:58:05.095Z,7.30
2018-02-25T05:59:05.075Z,7.90
2018-02-25T06:00:05.070Z,7.30
2018-02-25T06:01:05.029Z,7.40
2018-02-25T06:02:04.997Z,6.80
2018-02-25T06:03:04.977Z,7.50
2018-02-25T06:04:04.951Z,7.60
2018-02-25T06:05:04.929Z,6.50
2018-02-25T06:06:04.924Z,6.10
2018-02-25T06:07:04.897Z,6.70
2018-02-25T06:08:04.861Z,7.30
2018-02-25T06:09:04.836Z,7.30
2018-02-25T06:10:04.817Z,7.40
2018-02-25T06:11:05.357Z,7.20
2018-02-25T06:12:04.786Z,7.60
2018-02-25T06:13:04.747Z,7.60
2018-02-25T06:14:04.725Z,7.90
2018-02-25T06:15:04.761Z,8.30
2018-02-25T06:16:04.689Z,6.90
2018-02-25T06:17:04.670Z,7.10
2018-02-25T06:18:04.649Z,7.00
2018-02-25T06:19:04.699Z,8.30
2018-02-25T06:20:04.580Z,6.90
2018-02-25T06:21:04.562Z,7.10
2018-02-25T06:22:04.536Z,7.40
2018-02-25T06:23:04.584Z,7.10
2018-02-25T06:24:04.493Z,6.80
2018-02-25T06:25:04.478Z,7.30
2018-02-25T06:26:04.447Z,6.80
2018-02-25T06:27:04.441Z,6.80
2018-02-25T06:28:04.417Z,7.40
2018-02-25T06:29:04.376Z,7.40
2018-02-25T06:30:04.363Z,6.90
2018-02-25T06:31:04.328Z,7.10
2018-02-25T06:32:04.871Z,6.40
2018-02-25T06:33:15.718Z,7.20
2018-02-25T06:34:08.409Z,8.40
2018-02-25T06:35:07.773Z,7.00
2018-02-25T06:36:04.214Z,6.60
2018-02-25T06:37:05.815Z,7.00
2018-02-25T06:38:04.164Z,6.20
2018-02-25T06:39:05.818Z,6.40
2018-02-25T06:40:04.133Z,7.30
2018-02-25T06:41:04.097Z,7.70
2018-02-25T06:42:04.079Z,6.90
2018-02-25T06:43:04.050Z,8.60
2018-02-25T06:44:04.047Z,7.20
2018-02-25T06:45:04.027Z,7.80
2018-02-25T06:46:03.984Z,6.90
2018-02-25T06:47:03.961Z,8.40
2018-02-25T06:48:03.935Z,7.50
2018-02-25T06:49:03.913Z,6.40
2018-02-25T06:50:03.907Z,7.30
2018-02-25T06:51:03.869Z,7.60
2018-02-25T06:52:03.838Z,7.80
2018-02-25T06:53:03.819Z,7.70
2018-02-25T06:54:03.806Z,7.40
2018-02-25T06:55:03.774Z,7.40
2018-02-25T06:56:03.773Z,8.60
2018-02-25T06:57:03.728Z,7.00
2018-02-25T06:58:03.704Z,7.90
2018-02-25T06:59:03.674Z,7.50
2018-02-25T07:00:03.655Z,7.00
2018-02-25T07:01:03.653Z,8.30
2018-02-25T07:02:04.320Z,7.30
2018-02-25T07:03:03.590Z,7.30
2018-02-25T07:04:03.565Z,7.10
2018-02-25T07:05:03.546Z,7.30
2018-02-25T07:06:03.519Z,7.60
2018-02-25T07:07:03.512Z,9.50
2018-02-25T07:08:03.473Z,7.70
2018-02-25T07:09:03.444Z,6.30
2018-02-25T07:10:03.429Z,6.80
2018-02-25T07:11:03.404Z,6.50
2018-02-25T07:12:03.392Z,6.90
2018-02-25T07:13:03.376Z,7.30
2018-02-25T07:14:03.336Z,7.70
2018-02-25T07:15:03.369Z,8.20
2018-02-25T07:16:03.301Z,7.60
2018-02-25T07:17:03.263Z,7.10
2018-02-25T07:18:03.244Z,7.80
2018-02-25T07:19:03.234Z,6.90
2018-02-25T07:20:03.196Z,8.40
2018-02-25T07:21:03.176Z,8.00
2018-02-25T07:22:03.161Z,8.80
2018-02-25T07:23:03.124Z,7.30
2018-02-25T07:24:03.875Z,7.80
2018-02-25T07:25:03.081Z,7.10
2018-02-25T07:26:03.061Z,7.20
2018-02-25T07:27:03.040Z,7.60
2018-02-25T07:28:03.029Z,8.70
2018-02-25T07:29:02.995Z,7.40
2018-02-25T07:30:02.966Z,7.10
2018-02-25T07:31:02.945Z,6.90
2018-02-25T07:32:02.923Z,7.80
2018-02-25T07:33:02.916Z,7.70
2018-02-25T07:34:02.902Z,8.10
2018-02-25T07:35:06.318Z,8.30
2018-02-25T07:36:02.829Z,6.70
2018-02-25T07:37:02.813Z,8.50
2018-02-25T07:38:02.784Z,7.60
2018-02-25T07:39:02.758Z,6.70
2018-02-25T07:40:02.754Z,7.50
2018-02-25T07:41:02.714Z,8.20
2018-02-25T07:42:02.692Z,7.90
2018-02-25T07:43:02.668Z,7.50
2018-02-25T07:44:02.650Z,7.60
2018-02-25T07:45:02.619Z,8.60
2018-02-25T07:46:02.612Z,8.60
2018-02-25T07:47:03.357Z,8.30
2018-02-25T07:48:02.553Z,8.40
2018-02-25T07:49:02.528Z,8.20
2018-02-25T07:50:02.512Z,8.00
2018-02-25T07:51:02.498Z,7.50
2018-02-25T07:52:02.458Z,7.50
2018-02-25T07:53:02.445Z,8.40
2018-02-25T07:54:02.416Z,8.10
2018-02-25T07:55:02.394Z,7.20
2018-02-25T07:56:02.382Z,7.80
2018-02-25T07:57:02.348Z,7.30
2018-02-25T07:58:02.325Z,7.80
2018-02-25T07:59:02.302Z,8.30
2018-02-25T08:00:02.273Z,8.40
2018-02-25T08:01:02.273Z,7.20
2018-02-25T08:02:02.234Z,8.50
2018-02-25T08:03:02.222Z,9.30
2018-02-25T08:04:02.188Z,7.60
2018-02-25T08:05:02.165Z,8.50
2018-02-25T08:06:02.138Z,8.40
2018-02-25T08:07:02.132Z,8.40
2018-02-25T08:08:02.094Z,8.20
2018-02-25T08:09:02.067Z,6.90
2018-02-25T08:10:02.049Z,7.60
2018-02-25T08:11:02.043Z,7.70
2018-02-25T08:12:02.005Z,7.90
2018-02-25T08:13:01.990Z,8.30
2018-02-25T08:14:01.972Z,9.50
2018-02-25T08:15:01.930Z,7.90
2018-02-25T08:16:01.912Z,8.10
2018-02-25T08:17:01.888Z,7.90
2018-02-25T08:18:01.873Z,7.90
2018-02-25T08:19:01.857Z,7.40
2018-02-25T08:20:01.824Z,7.80
2018-02-25T08:21:01.798Z,12.00
2018-02-25T08:22:02.390Z,9.10
2018-02-25T08:23:01.756Z,9.90
2018-02-25T08:24:01.738Z,7.60
2018-02-25T08:25:01.705Z,7.70
2018-02-25T08:26:01.693Z,9.20
2018-02-25T08:27:01.660Z,8.10
2018-02-25T08:28:01.655Z,7.60
2018-02-25T08:29:01.608Z,8.80
2018-02-25T08:30:01.591Z,7.90
2018-02-25T08:31:01.577Z,8.20
2018-02-25T08:32:01.542Z,8.40
2018-02-25T08:33:01.534Z,9.20
2018-02-25T08:34:01.503Z,8.00
2018-02-25T08:35:01.480Z,9.80
2018-02-25T08:36:05.817Z,8.20
2018-02-25T08:37:01.457Z,8.30
2018-02-25T08:38:01.435Z,8.30
2018-02-25T08:39:01.385Z,7.80
2018-02-25T08:40:01.365Z,8.20
2018-02-25T08:41:01.338Z,8.30
2018-02-25T08:42:01.318Z,8.70
2018-02-25T08:43:01.308Z,8.40
2018-02-25T08:44:01.283Z,7.90
2018-02-25T08:45:01.250Z,8.00
2018-02-25T08:46:01.224Z,9.20
2018-02-25T08:47:01.899Z,8.00
2018-02-25T08:48:01.183Z,7.70
2018-02-25T08:49:01.183Z,7.10
2018-02-25T08:50:01.156Z,7.90
2018-02-25T08:51:01.112Z,7.50
2018-02-25T08:52:01.088Z,7.60
2018-02-25T08:53:01.071Z,7.00
2018-02-25T08:54:01.067Z,7.30
2018-02-25T08:55:01.020Z,8.10
2018-02-25T08:56:01.000Z,7.70
2018-02-25T08:57:00.980Z,7.00
2018-02-25T08:58:00.960Z,7.30
2018-02-25T08:59:00.942Z,7.80
2018-02-25T09:00:01.850Z,7.40
2018-02-25T09:01:00.911Z,8.60
2018-02-25T09:02:00.895Z,8.90
2018-02-25T09:03:00.846Z,8.10
2018-02-25T09:04:00.821Z,7.60
2018-02-25T09:05:00.818Z,7.20
2018-02-25T09:06:00.785Z,7.30
2018-02-25T09:07:00.819Z,7.20
2018-02-25T09:08:00.733Z,7.10
2018-02-25T09:09:00.707Z,8.50
2018-02-25T09:10:00.685Z,7.70
2018-02-25T09:11:00.669Z,9.00
2018-02-25T09:12:00.663Z,6.70
2018-02-25T09:13:00.648Z,7.70
2018-02-25T09:14:00.600Z,9.00
2018-02-25T09:15:00.585Z,6.80
2018-02-25T09:16:00.555Z,7.80
2018-02-25T09:17:00.534Z,8.40
2018-02-25T09:18:02.318Z,7.30
2018-02-25T09:19:00.504Z,6.70
2018-02-25T09:20:00.464Z,7.90
2018-02-25T09:21:00.443Z,7.30
2018-02-25T09:22:00.416Z,6.80
2018-02-25T09:23:00.398Z,7.50
2018-02-25T09:24:00.393Z,9.10
2018-02-25T09:25:00.367Z,7.20
2018-02-25T09:26:00.337Z,8.00
2018-02-25T09:27:00.306Z,7.10
2018-02-25T09:28:00.291Z,7.30
2018-02-25T09:29:00.278Z,7.60
2018-02-25T09:30:00.241Z,7.20
2018-02-25T09:31:00.225Z,9.00
2018-02-25T09:32:00.212Z,6.80
2018-02-25T09:33:00.178Z,7.10
2018-02-25T09:34:00.171Z,7.20
2018-02-25T09:35:00.130Z,9.10
2018-02-25T09:36:00.118Z,6.50
2018-02-25T09:37:00.093Z,6.60
2018-02-25T09:38:00.069Z,7.10
2018-02-25T09:39:00.063Z,6.70
2018-02-25T09:40:00.044Z,10.10
2018-02-25T09:41:00.021Z,6.60
2018-02-25T09:41:59.984Z,7.50
2018-02-25T09:42:59.959Z,8.30
2018-02-25T09:43:59.936Z,8.30
2018-02-25T09:44:59.933Z,9.00
2018-02-25T09:45:59.909Z,7.10
2018-02-25T09:46:59.871Z,7.00
2018-02-25T09:47:59.856Z,7.80
2018-02-25T09:48:59.846Z,7.60
2018-02-25T09:49:59.805Z,7.80
2018-02-25T09:50:59.910Z,5.90
2018-02-25T09:51:59.763Z,8.30
2018-02-25T09:52:59.743Z,8.20
2018-02-25T09:53:59.737Z,5.90
2018-02-25T09:54:59.698Z,8.10
2018-02-25T09:55:59.676Z,7.20
2018-02-25T09:56:59.669Z,6.80
2018-02-25T09:57:59.634Z,7.30
2018-02-25T09:58:59.619Z,7.00
2018-02-25T09:59:59.613Z,6.90
2018-02-25T10:00:59.568Z,7.50
2018-02-25T10:01:59.546Z,6.60
2018-02-25T10:03:01.319Z,7.80
2018-02-25T10:03:59.508Z,6.60
2018-02-25T10:04:59.480Z,7.10
2018-02-25T10:06:01.319Z,7.10
2018-02-25T10:06:59.477Z,6.50
2018-02-25T10:07:59.459Z,7.00
2018-02-25T10:08:59.396Z,6.80
2018-02-25T10:09:59.377Z,7.30
2018-02-25T10:10:59.368Z,7.30
2018-02-25T10:12:00.318Z,6.60
2018-02-25T10:12:59.310Z,7.40
2018-02-25T10:13:59.288Z,6.70
2018-02-25T10:14:59.263Z,6.40
2018-02-25T10:15:59.244Z,6.60
2018-02-25T10:16:59.246Z,6.10
2018-02-25T10:17:59.204Z,5.60
2018-02-25T10:18:59.194Z,6.70
2018-02-25T10:19:59.161Z,7.00
2018-02-25T10:20:59.142Z,7.10
2018-02-25T10:21:59.133Z,7.00
2018-02-25T10:22:59.107Z,6.80
2018-02-25T10:23:59.070Z,6.50
2018-02-25T10:24:59.071Z,7.50
2018-02-25T10:25:59.032Z,7.20
2018-02-25T10:26:59.223Z,5.50
2018-02-25T10:27:58.993Z,6.40
2018-02-25T10:28:58.992Z,6.50
2018-02-25T10:29:58.954Z,7.30
2018-02-25T10:30:58.933Z,6.00
2018-02-25T10:31:58.934Z,7.30
2018-02-25T10:32:59.854Z,6.50
2018-02-25T10:33:58.879Z,7.00
2018-02-25T10:34:59.395Z,6.60
2018-02-25T10:35:58.843Z,7.40
2018-02-25T10:36:59.402Z,7.90
2018-02-25T10:37:58.807Z,6.60
2018-02-25T10:38:58.781Z,5.40
2018-02-25T10:39:58.756Z,6.30
2018-02-25T10:40:58.737Z,8.00
2018-02-25T10:41:58.721Z,5.30
2018-02-25T10:42:58.724Z,5.50
2018-02-25T10:43:58.692Z,7.30
2018-02-25T10:44:58.685Z,5.70
2018-02-25T10:45:58.646Z,6.20
2018-02-25T10:46:58.630Z,6.80
2018-02-25T10:47:58.615Z,6.60
2018-02-25T10:48:58.606Z,7.30
2018-02-25T10:49:58.578Z,6.80
2018-02-25T10:50:58.569Z,6.60
2018-02-25T10:51:58.542Z,7.00
2018-02-25T10:52:58.526Z,6.80
2018-02-25T10:53:58.530Z,6.40
2018-02-25T10:54:58.493Z,6.60
2018-02-25T10:55:58.479Z,6.20
2018-02-25T10:56:58.464Z,6.20
2018-02-25T10:57:58.451Z,6.20
2018-02-25T10:58:58.450Z,6.20
2018-02-25T10:59:58.457Z,6.80
2018-02-25T11:00:58.405Z,6.80
2018-02-25T11:01:58.387Z,5.80
2018-02-25T11:02:58.377Z,6.70
2018-02-25T11:03:58.376Z,6.60
2018-02-25T11:04:58.346Z,5.80
2018-02-25T11:05:58.826Z,5.70
2018-02-25T11:06:58.321Z,7.80
2018-02-25T11:07:58.315Z,6.00
2018-02-25T11:08:58.826Z,7.80
2018-02-25T11:09:58.283Z,6.30
2018-02-25T11:10:58.262Z,6.40
2018-02-25T11:11:58.270Z,5.40
2018-02-25T11:12:58.258Z,5.90
2018-02-25T11:13:58.231Z,5.90
2018-02-25T11:14:58.214Z,7.10
2018-02-25T11:15:58.222Z,6.30
2018-02-25T11:16:58.195Z,6.30
2018-02-25T11:17:58.175Z,5.40
2018-02-25T11:18:58.175Z,5.80
2018-02-25T11:19:58.153Z,6.20
2018-02-25T11:20:58.149Z,6.20
2018-02-25T11:21:58.130Z,5.60
2018-02-25T11:22:58.143Z,5.20
2018-02-25T11:23:58.123Z,5.70
2018-02-25T11:24:58.093Z,7.50
2018-02-25T11:25:58.080Z,5.90
2018-02-25T11:26:58.098Z,5.70
2018-02-25T11:27:58.057Z,5.50
2018-02-25T11:28:58.046Z,5.50
2018-02-25T11:29:58.044Z,5.00
2018-02-25T11:30:58.024Z,5.60
2018-02-25T11:31:58.006Z,5.80
2018-02-25T11:32:58.002Z,6.80
2018-02-25T11:33:57.981Z,5.00
2018-02-25T11:34:57.974Z,5.70
2018-02-25T11:35:57.988Z,5.40
2018-02-25T11:36:57.950Z,5.10
2018-02-25T11:37:57.937Z,5.50
2018-02-25T11:38:57.931Z,6.20
2018-02-25T11:39:57.921Z,5.50
2018-02-25T11:40:57.922Z,6.30
2018-02-25T11:41:58.872Z,5.90
2018-02-25T11:42:57.888Z,5.90
2018-02-25T11:43:57.870Z,5.90
2018-02-25T11:44:58.365Z,5.80
2018-02-25T11:45:57.846Z,6.50
2018-02-25T11:46:57.857Z,7.00
2018-02-25T11:47:57.829Z,6.40
2018-02-25T11:48:57.821Z,6.20
2018-02-25T11:49:57.802Z,5.80
2018-02-25T11:50:57.790Z,7.50
2018-02-25T11:51:57.803Z,5.20
2018-02-25T11:52:57.770Z,5.60
2018-02-25T11:53:57.768Z,5.30
2018-02-25T11:54:57.751Z,5.90
2018-02-25T11:55:57.741Z,5.90
2018-02-25T11:56:57.723Z,6.10
2018-02-25T11:57:57.735Z,7.70
2018-02-25T11:58:57.707Z,6.00
2018-02-25T11:59:57.696Z,5.70
2018-02-25T12:00:57.681Z,6.10
2018-02-25T12:01:57.678Z,6.10
2018-02-25T12:02:57.663Z,5.20
2018-02-25T12:03:57.675Z,6.10
2018-02-25T12:04:57.641Z,5.70
2018-02-25T12:05:57.652Z,5.10
2018-02-25T12:06:57.617Z,5.40
2018-02-25T12:07:57.607Z,5.20
2018-02-25T12:08:57.610Z,5.80
2018-02-25T12:09:57.583Z,5.70
2018-02-25T12:10:57.568Z,6.50
2018-02-25T12:11:57.562Z,5.80
2018-02-25T12:12:57.548Z,6.10
2018-02-25T12:13:57.540Z,6.20
2018-02-25T12:14:59.611Z,6.50
2018-02-25T12:15:57.511Z,4.80
2018-02-25T12:16:57.501Z,6.40
2018-02-25T12:17:57.496Z,5.20
2018-02-25T12:18:57.489Z,5.70
2018-02-25T12:19:57.464Z,6.00
2018-02-25T12:20:57.467Z,5.00
2018-02-25T12:21:57.447Z,5.50
2018-02-25T12:22:57.434Z,6.00
2018-02-25T12:23:57.426Z,4.80
2018-02-25T12:24:58.379Z,6.10
2018-02-25T12:25:57.402Z,4.70
2018-02-25T12:26:57.400Z,5.90
2018-02-25T12:27:57.886Z,4.80
2018-02-25T12:28:57.373Z,5.60
2018-02-25T12:29:57.355Z,4.60
2018-02-25T12:30:57.348Z,5.90
2018-02-25T12:31:57.353Z,5.10
2018-02-25T12:32:57.929Z,5.60
2018-02-25T12:33:57.319Z,4.90
2018-02-25T12:34:57.303Z,4.90
2018-02-25T12:35:57.282Z,6.30
2018-02-25T12:36:57.277Z,4.90
2018-02-25T12:37:57.280Z,4.80
2018-02-25T12:38:57.252Z,5.80
2018-02-25T12:39:57.239Z,6.10
2018-02-25T12:40:57.235Z,6.20
2018-02-25T12:41:57.236Z,6.10
2018-02-25T12:42:57.207Z,9.90
2018-02-25T12:43:57.203Z,19.60
2018-02-25T12:44:57.202Z,51.10
2018-02-25T12:45:57.181Z,44.10
2018-02-25T12:46:57.159Z,52.70
2018-02-25T12:47:57.148Z,32.70
2018-02-25T12:48:57.153Z,17.00
2018-02-25T12:49:57.146Z,12.60
2018-02-25T12:50:57.114Z,9.00
2018-02-25T12:51:57.106Z,7.60
2018-02-25T12:52:57.093Z,5.40
2018-02-25T12:53:57.077Z,7.10
2018-02-25T12:54:57.069Z,7.30
2018-02-25T12:55:57.073Z,5.50
2018-02-25T12:56:57.052Z,5.40
2018-02-25T12:57:57.037Z,4.60
2018-02-25T12:58:57.026Z,4.20
2018-02-25T12:59:57.013Z,5.10
2018-02-25T13:00:57.019Z,4.50
2018-02-25T13:01:56.990Z,5.90
2018-02-25T13:02:56.977Z,6.50
2018-02-25T13:03:56.966Z,5.00
2018-02-25T13:04:56.955Z,5.40
2018-02-25T13:05:57.006Z,5.20
2018-02-25T13:07:17.939Z,4.80
2018-02-25T13:07:56.915Z,4.90
2018-02-25T13:08:56.910Z,7.90
2018-02-25T13:09:56.898Z,7.00
2018-02-25T13:10:56.890Z,5.10
2018-02-25T13:11:56.887Z,4.40
2018-02-25T13:12:56.863Z,4.90
2018-02-25T13:13:57.380Z,4.80
2018-02-25T13:14:56.837Z,6.20
2018-02-25T13:15:56.834Z,6.10
2018-02-25T13:16:56.832Z,5.30
2018-02-25T13:17:56.807Z,4.60